sensor_id;sensor_type;location;lat;lon;timestamp;P1;durP1;ratioP1;P2;durP2;ratioP2
64873;SDS011;51367;45.204;38.576;2023-02-21T00:02:39;1.65;;;1.55;;
64873;SDS011;51367;45.204;38.576;2023-02-21T00:05:23;0.60;;;0.60;;
64873;SDS011;51367;45.204;38.576;2023-02-21T00:08:08;1.80;;;1.40;;
64873;SDS011;51367;45.204;38.576;2023-02-21T00:10:52;1.10;;;0.93;;
64873;SDS011;51367;45.204;38.576;2023-02-21T00:13:37;1.20;;;0.55;;
64873;SDS011;51367;45.204;38.576;2023-02-21T00:16:21;0.30;;;0.30;;
64873;SDS011;51367;45.204;38.576;2023-02-21T00:19:06;0.63;;;0.63;;
64873;SDS011;51367;45.204;38.576;2023-02-21T00:21:51;1.55;;;1.13;;
64873;SDS011;51367;45.204;38.576;2023-02-21T00:24:35;0.38;;;0.38;;
64873;SDS011;51367;45.204;38.576;2023-02-21T00:27:20;12.93;;;0.85;;
64873;SDS011;51367;45.204;38.576;2023-02-21T00:30:04;4.75;;;0.63;;
64873;SDS011;51367;45.204;38.576;2023-02-21T00:32:49;0.52;;;0.52;;
64873;SDS011;51367;45.204;38.576;2023-02-21T00:35:34;1.55;;;0.90;;
64873;SDS011;51367;45.204;38.576;2023-02-21T00:38:18;0.60;;;0.60;;
64873;SDS011;51367;45.204;38.576;2023-02-21T00:41:02;1.08;;;0.80;;
64873;SDS011;51367;45.204;38.576;2023-02-21T00:43:47;0.40;;;0.40;;
64873;SDS011;51367;45.204;38.576;2023-02-21T00:46:32;0.73;;;0.73;;
64873;SDS011;51367;45.204;38.576;2023-02-21T00:49:17;1.20;;;1.10;;
64873;SDS011;51367;45.204;38.576;2023-02-21T00:52:01;4.82;;;1.00;;
64873;SDS011;51367;45.204;38.576;2023-02-21T00:54:46;2.30;;;1.17;;
64873;SDS011;51367;45.204;38.576;2023-02-21T00:57:30;0.50;;;0.50;;
64873;SDS011;51367;45.204;38.576;2023-02-21T01:00:16;0.63;;;0.63;;
64873;SDS011;51367;45.204;38.576;2023-02-21T01:03:02;1.52;;;1.00;;
64873;SDS011;51367;45.204;38.576;2023-02-21T01:05:47;0.38;;;0.38;;
64873;SDS011;51367;45.204;38.576;2023-02-21T01:08:31;6.70;;;0.70;;
64873;SDS011;51367;45.204;38.576;2023-02-21T01:11:17;0.90;;;0.90;;
64873;SDS011;51367;45.204;38.576;2023-02-21T01:14:03;0.77;;;0.77;;
64873;SDS011;51367;45.204;38.576;2023-02-21T01:16:48;0.60;;;0.60;;
64873;SDS011;51367;45.204;38.576;2023-02-21T01:19:33;0.65;;;0.60;;
64873;SDS011;51367;45.204;38.576;2023-02-21T01:22:17;0.32;;;0.32;;
64873;SDS011;51367;45.204;38.576;2023-02-21T01:25:01;0.50;;;0.50;;
64873;SDS011;51367;45.204;38.576;2023-02-21T01:27:46;0.55;;;0.40;;
64873;SDS011;51367;45.204;38.576;2023-02-21T01:30:31;0.85;;;0.85;;
64873;SDS011;51367;45.204;38.576;2023-02-21T01:33:15;0.47;;;0.47;;
64873;SDS011;51367;45.204;38.576;2023-02-21T01:36:03;0.77;;;0.77;;
64873;SDS011;51367;45.204;38.576;2023-02-21T01:38:49;0.93;;;0.70;;
64873;SDS011;51367;45.204;38.576;2023-02-21T01:41:35;0.70;;;0.70;;
64873;SDS011;51367;45.204;38.576;2023-02-21T01:47:18;2.13;;;0.80;;
64873;SDS011;51367;45.204;38.576;2023-02-21T01:50:05;1.05;;;0.70;;
64873;SDS011;51367;45.204;38.576;2023-02-21T01:52:58;0.75;;;0.75;;
64873;SDS011;51367;45.204;38.576;2023-02-21T01:55:43;1.65;;;1.00;;
64873;SDS011;51367;45.204;38.576;2023-02-21T01:58:28;0.90;;;0.90;;
64873;SDS011;51367;45.204;38.576;2023-02-21T02:01:18;0.80;;;0.80;;
64873;SDS011;51367;45.204;38.576;2023-02-21T02:04:08;0.75;;;0.75;;
64873;SDS011;51367;45.204;38.576;2023-02-21T02:06:52;2.40;;;1.08;;
64873;SDS011;51367;45.204;38.576;2023-02-21T02:09:36;0.30;;;0.30;;
64873;SDS011;51367;45.204;38.576;2023-02-21T02:12:26;1.13;;;0.85;;
64873;SDS011;51367;45.204;38.576;2023-02-21T02:15:37;0.80;;;0.77;;
64873;SDS011;51367;45.204;38.576;2023-02-21T02:23:42;0.82;;;0.82;;
64873;SDS011;51367;45.204;38.576;2023-02-21T02:37:56;0.70;;;0.70;;
64873;SDS011;51367;45.204;38.576;2023-02-21T02:40:44;4.18;;;1.33;;
64873;SDS011;51367;45.204;38.576;2023-02-21T02:43:42;1.73;;;1.05;;
64873;SDS011;51367;45.204;38.576;2023-02-21T02:49:25;0.60;;;0.60;;
64873;SDS011;51367;45.204;38.576;2023-02-21T02:51:46;0.95;;;0.90;;
64873;SDS011;51367;45.204;38.576;2023-02-21T02:54:15;2.92;;;0.68;;
64873;SDS011;51367;45.204;38.576;2023-02-21T02:56:41;2.42;;;1.35;;
64873;SDS011;51367;45.204;38.576;2023-02-21T02:59:09;0.55;;;0.55;;
64873;SDS011;51367;45.204;38.576;2023-02-21T03:12:31;1.42;;;1.23;;
64873;SDS011;51367;45.204;38.576;2023-02-21T03:15:00;1.30;;;1.08;;
64873;SDS011;51367;45.204;38.576;2023-02-21T03:17:35;1.02;;;0.73;;
64873;SDS011;51367;45.204;38.576;2023-02-21T03:20:14;0.75;;;0.75;;
64873;SDS011;51367;45.204;38.576;2023-02-21T03:22:42;0.75;;;0.75;;
64873;SDS011;51367;45.204;38.576;2023-02-21T03:25:09;1.08;;;1.08;;
64873;SDS011;51367;45.204;38.576;2023-02-21T03:27:38;0.65;;;0.55;;
64873;SDS011;51367;45.204;38.576;2023-02-21T03:30:16;7.93;;;1.25;;
64873;SDS011;51367;45.204;38.576;2023-02-21T03:32:48;4.90;;;1.65;;
64873;SDS011;51367;45.204;38.576;2023-02-21T03:35:17;0.75;;;0.40;;
64873;SDS011;51367;45.204;38.576;2023-02-21T03:37:49;0.85;;;0.80;;
64873;SDS011;51367;45.204;38.576;2023-02-21T03:40:21;0.50;;;0.50;;
64873;SDS011;51367;45.204;38.576;2023-02-21T03:42:51;0.95;;;0.95;;
64873;SDS011;51367;45.204;38.576;2023-02-21T03:45:19;1.15;;;0.75;;
64873;SDS011;51367;45.204;38.576;2023-02-21T03:48:01;1.05;;;0.95;;
64873;SDS011;51367;45.204;38.576;2023-02-21T03:50:29;1.45;;;1.17;;
64873;SDS011;51367;45.204;38.576;2023-02-21T03:52:55;1.95;;;1.15;;
64873;SDS011;51367;45.204;38.576;2023-02-21T03:55:22;3.35;;;0.98;;
64873;SDS011;51367;45.204;38.576;2023-02-21T03:57:48;0.65;;;0.65;;
64873;SDS011;51367;45.204;38.576;2023-02-21T04:00:14;6.13;;;2.20;;
64873;SDS011;51367;45.204;38.576;2023-02-21T04:02:41;0.90;;;0.90;;
64873;SDS011;51367;45.204;38.576;2023-02-21T04:05:10;0.63;;;0.60;;
64873;SDS011;51367;45.204;38.576;2023-02-21T04:07:37;1.63;;;1.23;;
64873;SDS011;51367;45.204;38.576;2023-02-21T04:10:04;1.48;;;0.90;;
64873;SDS011;51367;45.204;38.576;2023-02-21T04:12:42;2.72;;;0.93;;
64873;SDS011;51367;45.204;38.576;2023-02-21T04:15:09;2.45;;;1.42;;
64873;SDS011;51367;45.204;38.576;2023-02-21T04:17:36;1.65;;;1.02;;
64873;SDS011;51367;45.204;38.576;2023-02-21T04:20:03;0.70;;;0.70;;
64873;SDS011;51367;45.204;38.576;2023-02-21T04:22:33;0.70;;;0.70;;
64873;SDS011;51367;45.204;38.576;2023-02-21T04:24:59;0.52;;;0.47;;
64873;SDS011;51367;45.204;38.576;2023-02-21T04:27:27;0.35;;;0.35;;
64873;SDS011;51367;45.204;38.576;2023-02-21T04:29:55;0.70;;;0.70;;
64873;SDS011;51367;45.204;38.576;2023-02-21T04:32:21;0.73;;;0.73;;
64873;SDS011;51367;45.204;38.576;2023-02-21T04:34:47;3.45;;;0.52;;
64873;SDS011;51367;45.204;38.576;2023-02-21T04:37:13;2.33;;;0.98;;
64873;SDS011;51367;45.204;38.576;2023-02-21T04:39:40;2.60;;;1.52;;
64873;SDS011;51367;45.204;38.576;2023-02-21T04:42:06;0.60;;;0.60;;
64873;SDS011;51367;45.204;38.576;2023-02-21T04:44:34;1.02;;;0.80;;
64873;SDS011;51367;45.204;38.576;2023-02-21T04:47:00;9.80;;;0.70;;
64873;SDS011;51367;45.204;38.576;2023-02-21T04:49:26;1.00;;;0.75;;
64873;SDS011;51367;45.204;38.576;2023-02-21T04:51:52;0.95;;;0.95;;
64873;SDS011;51367;45.204;38.576;2023-02-21T04:54:19;1.98;;;0.93;;
64873;SDS011;51367;45.204;38.576;2023-02-21T04:56:45;4.68;;;2.00;;
64873;SDS011;51367;45.204;38.576;2023-02-21T04:59:11;1.00;;;1.00;;
64873;SDS011;51367;45.204;38.576;2023-02-21T05:01:37;3.97;;;0.73;;
64873;SDS011;51367;45.204;38.576;2023-02-21T05:04:03;2.40;;;1.02;;
64873;SDS011;51367;45.204;38.576;2023-02-21T05:06:29;1.35;;;1.10;;
64873;SDS011;51367;45.204;38.576;2023-02-21T05:08:56;0.75;;;0.75;;
64873;SDS011;51367;45.204;38.576;2023-02-21T05:11:23;1.63;;;1.52;;
64873;SDS011;51367;45.204;38.576;2023-02-21T05:13:49;3.45;;;1.45;;
64873;SDS011;51367;45.204;38.576;2023-02-21T05:16:16;1.63;;;0.82;;
64873;SDS011;51367;45.204;38.576;2023-02-21T05:18:43;1.65;;;1.08;;
64873;SDS011;51367;45.204;38.576;2023-02-21T05:21:10;1.95;;;1.25;;
64873;SDS011;51367;45.204;38.576;2023-02-21T05:23:38;0.98;;;0.88;;
64873;SDS011;51367;45.204;38.576;2023-02-21T05:26:06;1.08;;;1.08;;
64873;SDS011;51367;45.204;38.576;2023-02-21T05:28:37;2.75;;;1.35;;
64873;SDS011;51367;45.204;38.576;2023-02-21T05:31:04;0.90;;;0.90;;
64873;SDS011;51367;45.204;38.576;2023-02-21T05:33:31;2.17;;;1.05;;
64873;SDS011;51367;45.204;38.576;2023-02-21T05:35:57;0.90;;;0.88;;
64873;SDS011;51367;45.204;38.576;2023-02-21T05:38:24;1.10;;;0.93;;
64873;SDS011;51367;45.204;38.576;2023-02-21T05:40:50;0.57;;;0.57;;
64873;SDS011;51367;45.204;38.576;2023-02-21T05:43:16;0.80;;;0.80;;
64873;SDS011;51367;45.204;38.576;2023-02-21T05:45:43;1.48;;;1.08;;
64873;SDS011;51367;45.204;38.576;2023-02-21T05:48:09;0.55;;;0.55;;
64873;SDS011;51367;45.204;38.576;2023-02-21T05:50:35;3.75;;;1.50;;
64873;SDS011;51367;45.204;38.576;2023-02-21T05:53:01;1.92;;;0.85;;
64873;SDS011;51367;45.204;38.576;2023-02-21T05:55:27;1.75;;;1.05;;
64873;SDS011;51367;45.204;38.576;2023-02-21T05:57:53;1.25;;;1.02;;
64873;SDS011;51367;45.204;38.576;2023-02-21T06:00:20;2.35;;;1.50;;
64873;SDS011;51367;45.204;38.576;2023-02-21T06:02:50;1.92;;;1.20;;
64873;SDS011;51367;45.204;38.576;2023-02-21T06:05:17;1.13;;;1.02;;
64873;SDS011;51367;45.204;38.576;2023-02-21T06:07:43;1.02;;;0.98;;
64873;SDS011;51367;45.204;38.576;2023-02-21T06:10:10;6.45;;;1.08;;
64873;SDS011;51367;45.204;38.576;2023-02-21T06:12:36;1.08;;;1.02;;
64873;SDS011;51367;45.204;38.576;2023-02-21T06:15:02;2.38;;;0.93;;
64873;SDS011;51367;45.204;38.576;2023-02-21T06:17:32;0.73;;;0.65;;
64873;SDS011;51367;45.204;38.576;2023-02-21T06:19:58;1.10;;;0.80;;
64873;SDS011;51367;45.204;38.576;2023-02-21T06:22:24;0.45;;;0.45;;
64873;SDS011;51367;45.204;38.576;2023-02-21T06:24:50;0.50;;;0.50;;
64873;SDS011;51367;45.204;38.576;2023-02-21T06:27:16;0.60;;;0.60;;
64873;SDS011;51367;45.204;38.576;2023-02-21T06:29:42;0.68;;;0.57;;
64873;SDS011;51367;45.204;38.576;2023-02-21T06:32:07;1.45;;;1.35;;
64873;SDS011;51367;45.204;38.576;2023-02-21T06:34:33;0.85;;;0.77;;
64873;SDS011;51367;45.204;38.576;2023-02-21T06:36:59;2.28;;;1.20;;
64873;SDS011;51367;45.204;38.576;2023-02-21T06:39:25;0.73;;;0.73;;
64873;SDS011;51367;45.204;38.576;2023-02-21T06:41:51;0.75;;;0.75;;
64873;SDS011;51367;45.204;38.576;2023-02-21T06:44:18;0.70;;;0.70;;
64873;SDS011;51367;45.204;38.576;2023-02-21T06:46:44;1.38;;;0.65;;
64873;SDS011;51367;45.204;38.576;2023-02-21T06:49:15;1.75;;;1.30;;
64873;SDS011;51367;45.204;38.576;2023-02-21T06:51:41;1.10;;;1.00;;
64873;SDS011;51367;45.204;38.576;2023-02-21T06:54:07;0.65;;;0.55;;
64873;SDS011;51367;45.204;38.576;2023-02-21T06:56:33;3.00;;;1.33;;
64873;SDS011;51367;45.204;38.576;2023-02-21T06:59:00;1.63;;;0.88;;
64873;SDS011;51367;45.204;38.576;2023-02-21T07:01:26;10.82;;;0.75;;
64873;SDS011;51367;45.204;38.576;2023-02-21T07:03:54;2.25;;;1.35;;
64873;SDS011;51367;45.204;38.576;2023-02-21T07:06:20;0.73;;;0.73;;
64873;SDS011;51367;45.204;38.576;2023-02-21T07:08:47;1.17;;;0.75;;
64873;SDS011;51367;45.204;38.576;2023-02-21T07:11:13;4.35;;;1.70;;
64873;SDS011;51367;45.204;38.576;2023-02-21T07:13:40;0.60;;;0.60;;
64873;SDS011;51367;45.204;38.576;2023-02-21T07:16:06;0.60;;;0.50;;
64873;SDS011;51367;45.204;38.576;2023-02-21T07:18:32;2.30;;;0.70;;
64873;SDS011;51367;45.204;38.576;2023-02-21T07:20:58;1.85;;;1.05;;
64873;SDS011;51367;45.204;38.576;2023-02-21T07:23:24;0.93;;;0.70;;
64873;SDS011;51367;45.204;38.576;2023-02-21T07:25:50;0.57;;;0.57;;
64873;SDS011;51367;45.204;38.576;2023-02-21T07:28:16;2.10;;;0.98;;
64873;SDS011;51367;45.204;38.576;2023-02-21T07:30:42;2.17;;;1.10;;
64873;SDS011;51367;45.204;38.576;2023-02-21T07:33:08;0.85;;;0.70;;
64873;SDS011;51367;45.204;38.576;2023-02-21T07:35:34;0.57;;;0.57;;
64873;SDS011;51367;45.204;38.576;2023-02-21T07:38:00;2.28;;;0.75;;
64873;SDS011;51367;45.204;38.576;2023-02-21T07:40:26;0.47;;;0.43;;
64873;SDS011;51367;45.204;38.576;2023-02-21T07:42:52;0.85;;;0.70;;
64873;SDS011;51367;45.204;38.576;2023-02-21T07:45:17;0.88;;;0.68;;
64873;SDS011;51367;45.204;38.576;2023-02-21T07:47:44;0.65;;;0.60;;
64873;SDS011;51367;45.204;38.576;2023-02-21T07:50:10;0.70;;;0.70;;
64873;SDS011;51367;45.204;38.576;2023-02-21T07:52:37;1.33;;;0.38;;
64873;SDS011;51367;45.204;38.576;2023-02-21T07:55:03;1.13;;;1.13;;
64873;SDS011;51367;45.204;38.576;2023-02-21T07:57:29;3.22;;;0.57;;
64873;SDS011;51367;45.204;38.576;2023-02-21T07:59:55;1.55;;;0.50;;
64873;SDS011;51367;45.204;38.576;2023-02-21T08:02:20;0.57;;;0.30;;
64873;SDS011;51367;45.204;38.576;2023-02-21T08:04:51;0.25;;;0.25;;
64873;SDS011;51367;45.204;38.576;2023-02-21T08:07:17;2.55;;;0.75;;
64873;SDS011;51367;45.204;38.576;2023-02-21T08:09:43;0.43;;;0.43;;
64873;SDS011;51367;45.204;38.576;2023-02-21T08:12:09;0.40;;;0.40;;
64873;SDS011;51367;45.204;38.576;2023-02-21T08:14:35;1.33;;;0.60;;
64873;SDS011;51367;45.204;38.576;2023-02-21T08:17:01;0.40;;;0.40;;
64873;SDS011;51367;45.204;38.576;2023-02-21T08:19:27;2.25;;;0.47;;
64873;SDS011;51367;45.204;38.576;2023-02-21T08:21:52;0.60;;;0.60;;
64873;SDS011;51367;45.204;38.576;2023-02-21T08:24:18;1.50;;;1.10;;
64873;SDS011;51367;45.204;38.576;2023-02-21T08:26:44;0.40;;;0.40;;
64873;SDS011;51367;45.204;38.576;2023-02-21T08:29:14;0.52;;;0.47;;
64873;SDS011;51367;45.204;38.576;2023-02-21T08:31:42;0.57;;;0.57;;
64873;SDS011;51367;45.204;38.576;2023-02-21T08:34:09;0.88;;;0.88;;
64873;SDS011;51367;45.204;38.576;2023-02-21T08:36:37;0.60;;;0.60;;
64873;SDS011;51367;45.204;38.576;2023-02-21T08:39:07;1.98;;;0.63;;
64873;SDS011;51367;45.204;38.576;2023-02-21T08:41:38;0.70;;;0.70;;
64873;SDS011;51367;45.204;38.576;2023-02-21T08:44:13;0.20;;;0.20;;
64873;SDS011;51367;45.204;38.576;2023-02-21T08:46:41;0.77;;;0.63;;
64873;SDS011;51367;45.204;38.576;2023-02-21T08:49:07;3.15;;;2.92;;
64873;SDS011;51367;45.204;38.576;2023-02-21T08:51:34;0.60;;;0.60;;
64873;SDS011;51367;45.204;38.576;2023-02-21T08:54:01;0.60;;;0.60;;
64873;SDS011;51367;45.204;38.576;2023-02-21T08:56:27;1.58;;;1.17;;
64873;SDS011;51367;45.204;38.576;2023-02-21T08:58:54;0.88;;;0.88;;
64873;SDS011;51367;45.204;38.576;2023-02-21T09:01:21;3.50;;;1.90;;
64873;SDS011;51367;45.204;38.576;2023-02-21T09:03:48;2.95;;;1.05;;
64873;SDS011;51367;45.204;38.576;2023-02-21T09:06:15;3.20;;;1.23;;
64873;SDS011;51367;45.204;38.576;2023-02-21T09:08:42;3.20;;;0.73;;
64873;SDS011;51367;45.204;38.576;2023-02-21T09:11:08;3.80;;;1.02;;
64873;SDS011;51367;45.204;38.576;2023-02-21T09:13:34;1.38;;;1.00;;
64873;SDS011;51367;45.204;38.576;2023-02-21T09:16:00;15.90;;;1.08;;
64873;SDS011;51367;45.204;38.576;2023-02-21T09:18:28;1.23;;;1.13;;
64873;SDS011;51367;45.204;38.576;2023-02-21T09:20:55;0.70;;;0.70;;
64873;SDS011;51367;45.204;38.576;2023-02-21T09:23:23;0.88;;;0.88;;
64873;SDS011;51367;45.204;38.576;2023-02-21T09:25:50;0.55;;;0.55;;
64873;SDS011;51367;45.204;38.576;2023-02-21T09:28:16;4.47;;;1.17;;
64873;SDS011;51367;45.204;38.576;2023-02-21T09:30:43;0.70;;;0.70;;
64873;SDS011;51367;45.204;38.576;2023-02-21T09:33:10;3.35;;;1.73;;
64873;SDS011;51367;45.204;38.576;2023-02-21T09:35:36;1.65;;;0.93;;
64873;SDS011;51367;45.204;38.576;2023-02-21T09:38:02;2.40;;;1.25;;
64873;SDS011;51367;45.204;38.576;2023-02-21T09:43:00;3.45;;;1.40;;
64873;SDS011;51367;45.204;38.576;2023-02-21T09:45:29;1.83;;;1.20;;
64873;SDS011;51367;45.204;38.576;2023-02-21T09:47:58;0.70;;;0.70;;
64873;SDS011;51367;45.204;38.576;2023-02-21T09:50:46;2.45;;;0.88;;
64873;SDS011;51367;45.204;38.576;2023-02-21T09:53:22;1.83;;;1.30;;
64873;SDS011;51367;45.204;38.576;2023-02-21T09:55:53;3.42;;;2.22;;
64873;SDS011;51367;45.204;38.576;2023-02-21T09:58:26;2.65;;;1.63;;
64873;SDS011;51367;45.204;38.576;2023-02-21T10:00:55;2.47;;;1.40;;
64873;SDS011;51367;45.204;38.576;2023-02-21T10:03:43;12.50;;;1.90;;
64873;SDS011;51367;45.204;38.576;2023-02-21T10:06:57;3.03;;;1.45;;
64873;SDS011;51367;45.204;38.576;2023-02-21T10:11:58;1.92;;;1.58;;
64873;SDS011;51367;45.204;38.576;2023-02-21T10:14:42;1.52;;;1.42;;
64873;SDS011;51367;45.204;38.576;2023-02-21T10:19:46;3.03;;;1.95;;
64873;SDS011;51367;45.204;38.576;2023-02-21T10:22:24;2.97;;;2.00;;
64873;SDS011;51367;45.204;38.576;2023-02-21T10:24:55;2.17;;;1.40;;
64873;SDS011;51367;45.204;38.576;2023-02-21T10:27:22;4.55;;;1.70;;
64873;SDS011;51367;45.204;38.576;2023-02-21T10:29:55;2.78;;;1.85;;
64873;SDS011;51367;45.204;38.576;2023-02-21T10:32:28;1.40;;;1.30;;
64873;SDS011;51367;45.204;38.576;2023-02-21T10:34:55;2.97;;;1.95;;
64873;SDS011;51367;45.204;38.576;2023-02-21T10:42:48;1.60;;;1.42;;
64873;SDS011;51367;45.204;38.576;2023-02-21T10:45:18;3.72;;;2.13;;
64873;SDS011;51367;45.204;38.576;2023-02-21T10:47:59;5.47;;;2.53;;
64873;SDS011;51367;45.204;38.576;2023-02-21T10:50:41;6.75;;;1.63;;
64873;SDS011;51367;45.204;38.576;2023-02-21T10:53:31;10.02;;;2.47;;
64873;SDS011;51367;45.204;38.576;2023-02-21T10:56:17;3.50;;;1.77;;
64873;SDS011;51367;45.204;38.576;2023-02-21T10:58:53;6.22;;;2.78;;
64873;SDS011;51367;45.204;38.576;2023-02-21T11:03:55;2.50;;;2.05;;
64873;SDS011;51367;45.204;38.576;2023-02-21T11:06:30;2.53;;;1.92;;
64873;SDS011;51367;45.204;38.576;2023-02-21T11:09:00;2.28;;;1.52;;
64873;SDS011;51367;45.204;38.576;2023-02-21T11:11:30;4.18;;;2.10;;
64873;SDS011;51367;45.204;38.576;2023-02-21T11:19:48;5.53;;;2.50;;
64873;SDS011;51367;45.204;38.576;2023-02-21T11:22:40;7.40;;;2.50;;
64873;SDS011;51367;45.204;38.576;2023-02-21T11:25:20;2.53;;;2.25;;
64873;SDS011;51367;45.204;38.576;2023-02-21T11:28:00;8.00;;;2.67;;
64873;SDS011;51367;45.204;38.576;2023-02-21T11:31:07;5.78;;;2.97;;
64873;SDS011;51367;45.204;38.576;2023-02-21T11:33:40;5.07;;;2.40;;
64873;SDS011;51367;45.204;38.576;2023-02-21T11:36:14;3.40;;;2.17;;
64873;SDS011;51367;45.204;38.576;2023-02-21T11:41:47;2.33;;;1.92;;
64873;SDS011;51367;45.204;38.576;2023-02-21T11:44:34;1.70;;;1.60;;
64873;SDS011;51367;45.204;38.576;2023-02-21T11:52:33;3.65;;;2.17;;
64873;SDS011;51367;45.204;38.576;2023-02-21T11:55:14;4.60;;;3.08;;
64873;SDS011;51367;45.204;38.576;2023-02-21T11:58:04;3.28;;;2.15;;
64873;SDS011;51367;45.204;38.576;2023-02-21T12:00:39;2.40;;;2.20;;
64873;SDS011;51367;45.204;38.576;2023-02-21T12:03:35;3.00;;;2.42;;
64873;SDS011;51367;45.204;38.576;2023-02-21T12:09:06;3.95;;;2.35;;
64873;SDS011;51367;45.204;38.576;2023-02-21T12:12:25;9.25;;;2.45;;
64873;SDS011;51367;45.204;38.576;2023-02-21T12:39:35;5.93;;;2.42;;
64873;SDS011;51367;45.204;38.576;2023-02-21T12:42:40;5.63;;;2.65;;
64873;SDS011;51367;45.204;38.576;2023-02-21T12:50:40;5.68;;;2.38;;
64873;SDS011;51367;45.204;38.576;2023-02-21T12:53:13;7.38;;;2.13;;
64873;SDS011;51367;45.204;38.576;2023-02-21T12:56:02;4.53;;;1.85;;
64873;SDS011;51367;45.204;38.576;2023-02-21T12:58:34;3.03;;;1.40;;
64873;SDS011;51367;45.204;38.576;2023-02-21T13:06:31;6.07;;;2.60;;
64873;SDS011;51367;45.204;38.576;2023-02-21T13:09:29;3.00;;;2.20;;
64873;SDS011;51367;45.204;38.576;2023-02-21T13:12:24;2.88;;;1.45;;
64873;SDS011;51367;45.204;38.576;2023-02-21T13:15:15;4.07;;;1.95;;
64873;SDS011;51367;45.204;38.576;2023-02-21T13:18:15;2.63;;;1.77;;
64873;SDS011;51367;45.204;38.576;2023-02-21T13:20:40;2.40;;;2.13;;
64873;SDS011;51367;45.204;38.576;2023-02-21T13:29:33;2.30;;;1.45;;
64873;SDS011;51367;45.204;38.576;2023-02-21T13:32:08;2.88;;;1.55;;
64873;SDS011;51367;45.204;38.576;2023-02-21T13:34:42;4.13;;;2.05;;
64873;SDS011;51367;45.204;38.576;2023-02-21T13:37:19;3.25;;;1.50;;
64873;SDS011;51367;45.204;38.576;2023-02-21T13:40:23;3.05;;;1.67;;
64873;SDS011;51367;45.204;38.576;2023-02-21T13:42:48;1.80;;;1.40;;
64873;SDS011;51367;45.204;38.576;2023-02-21T13:45:25;3.83;;;1.10;;
64873;SDS011;51367;45.204;38.576;2023-02-21T13:53:08;4.97;;;2.15;;
64873;SDS011;51367;45.204;38.576;2023-02-21T14:07:10;3.70;;;2.20;;
64873;SDS011;51367;45.204;38.576;2023-02-21T14:09:38;2.95;;;2.45;;
64873;SDS011;51367;45.204;38.576;2023-02-21T14:12:05;11.35;;;2.67;;
64873;SDS011;51367;45.204;38.576;2023-02-21T14:14:35;5.15;;;3.28;;
64873;SDS011;51367;45.204;38.576;2023-02-21T14:22:13;2.97;;;1.75;;
64873;SDS011;51367;45.204;38.576;2023-02-21T14:24:49;3.90;;;2.35;;
64873;SDS011;51367;45.204;38.576;2023-02-21T14:32:35;8.60;;;2.20;;
64873;SDS011;51367;45.204;38.576;2023-02-21T14:37:43;7.43;;;3.13;;
64873;SDS011;51367;45.204;38.576;2023-02-21T14:56:46;2.45;;;1.33;;
64873;SDS011;51367;45.204;38.576;2023-02-21T15:02:39;3.55;;;2.35;;
64873;SDS011;51367;45.204;38.576;2023-02-21T15:05:27;8.65;;;3.00;;
64873;SDS011;51367;45.204;38.576;2023-02-21T15:08:05;7.38;;;3.00;;
64873;SDS011;51367;45.204;38.576;2023-02-21T15:10:41;9.75;;;3.35;;
64873;SDS011;51367;45.204;38.576;2023-02-21T15:18:31;23.80;;;4.55;;
64873;SDS011;51367;45.204;38.576;2023-02-21T15:23:42;11.32;;;2.05;;
64873;SDS011;51367;45.204;38.576;2023-02-21T15:26:31;12.05;;;4.05;;
64873;SDS011;51367;45.204;38.576;2023-02-21T15:29:17;8.43;;;2.35;;
64873;SDS011;51367;45.204;38.576;2023-02-21T15:31:44;3.00;;;2.10;;
64873;SDS011;51367;45.204;38.576;2023-02-21T15:34:18;8.30;;;2.47;;
64873;SDS011;51367;45.204;38.576;2023-02-21T15:36:47;10.35;;;3.58;;
64873;SDS011;51367;45.204;38.576;2023-02-21T15:39:23;5.07;;;2.13;;
64873;SDS011;51367;45.204;38.576;2023-02-21T15:41:54;6.03;;;1.98;;
64873;SDS011;51367;45.204;38.576;2023-02-21T15:44:28;2.92;;;1.77;;
64873;SDS011;51367;45.204;38.576;2023-02-21T15:47:03;3.35;;;1.80;;
64873;SDS011;51367;45.204;38.576;2023-02-21T15:49:39;4.25;;;2.63;;
64873;SDS011;51367;45.204;38.576;2023-02-21T15:52:24;6.97;;;2.47;;
64873;SDS011;51367;45.204;38.576;2023-02-21T15:57:43;5.30;;;3.08;;
64873;SDS011;51367;45.204;38.576;2023-02-21T16:00:36;6.90;;;2.75;;
64873;SDS011;51367;45.204;38.576;2023-02-21T16:06:43;11.20;;;3.15;;
64873;SDS011;51367;45.204;38.576;2023-02-21T16:08:39;6.10;;;2.90;;
64873;SDS011;51367;45.204;38.576;2023-02-21T16:11:16;8.93;;;2.92;;
64873;SDS011;51367;45.204;38.576;2023-02-21T16:13:43;5.38;;;3.03;;
64873;SDS011;51367;45.204;38.576;2023-02-21T16:16:10;3.33;;;2.63;;
64873;SDS011;51367;45.204;38.576;2023-02-21T16:18:36;2.53;;;1.95;;
64873;SDS011;51367;45.204;38.576;2023-02-21T16:21:04;5.35;;;2.55;;
64873;SDS011;51367;45.204;38.576;2023-02-21T16:23:37;4.57;;;2.30;;
64873;SDS011;51367;45.204;38.576;2023-02-21T16:28:35;6.50;;;2.88;;
64873;SDS011;51367;45.204;38.576;2023-02-21T16:31:02;3.08;;;2.10;;
64873;SDS011;51367;45.204;38.576;2023-02-21T16:33:31;9.88;;;2.72;;
64873;SDS011;51367;45.204;38.576;2023-02-21T16:35:58;10.80;;;2.42;;
64873;SDS011;51367;45.204;38.576;2023-02-21T16:38:25;7.93;;;2.50;;
64873;SDS011;51367;45.204;38.576;2023-02-21T16:40:51;3.88;;;2.50;;
64873;SDS011;51367;45.204;38.576;2023-02-21T16:43:22;6.65;;;1.83;;
64873;SDS011;51367;45.204;38.576;2023-02-21T16:45:53;11.50;;;2.90;;
64873;SDS011;51367;45.204;38.576;2023-02-21T16:48:21;10.20;;;3.13;;
64873;SDS011;51367;45.204;38.576;2023-02-21T16:50:51;5.15;;;2.08;;
64873;SDS011;51367;45.204;38.576;2023-02-21T16:53:17;2.85;;;2.03;;
64873;SDS011;51367;45.204;38.576;2023-02-21T16:55:44;8.13;;;3.60;;
64873;SDS011;51367;45.204;38.576;2023-02-21T16:58:29;5.78;;;2.42;;
64873;SDS011;51367;45.204;38.576;2023-02-21T17:01:02;7.43;;;2.92;;
64873;SDS011;51367;45.204;38.576;2023-02-21T17:03:39;15.40;;;3.58;;
64873;SDS011;51367;45.204;38.576;2023-02-21T17:06:06;10.00;;;2.78;;
64873;SDS011;51367;45.204;38.576;2023-02-21T17:08:32;3.42;;;2.13;;
64873;SDS011;51367;45.204;38.576;2023-02-21T17:10:58;5.07;;;2.47;;
64873;SDS011;51367;45.204;38.576;2023-02-21T17:13:24;5.13;;;2.50;;
64873;SDS011;51367;45.204;38.576;2023-02-21T17:15:50;6.63;;;2.95;;
64873;SDS011;51367;45.204;38.576;2023-02-21T17:18:16;4.97;;;2.75;;
64873;SDS011;51367;45.204;38.576;2023-02-21T17:20:42;5.43;;;2.30;;
64873;SDS011;51367;45.204;38.576;2023-02-21T17:23:08;7.28;;;2.78;;
64873;SDS011;51367;45.204;38.576;2023-02-21T17:25:35;6.05;;;1.98;;
64873;SDS011;51367;45.204;38.576;2023-02-21T17:28:01;1.55;;;1.45;;
64873;SDS011;51367;45.204;38.576;2023-02-21T17:30:28;6.93;;;3.20;;
64873;SDS011;51367;45.204;38.576;2023-02-21T17:32:55;8.88;;;3.22;;
64873;SDS011;51367;45.204;38.576;2023-02-21T17:35:22;8.93;;;2.63;;
64873;SDS011;51367;45.204;38.576;2023-02-21T17:37:49;6.78;;;3.90;;
64873;SDS011;51367;45.204;38.576;2023-02-21T17:40:16;10.93;;;3.45;;
64873;SDS011;51367;45.204;38.576;2023-02-21T17:42:44;6.97;;;2.60;;
64873;SDS011;51367;45.204;38.576;2023-02-21T17:45:10;7.47;;;3.50;;
64873;SDS011;51367;45.204;38.576;2023-02-21T17:47:36;6.68;;;2.75;;
64873;SDS011;51367;45.204;38.576;2023-02-21T17:50:02;9.85;;;4.07;;
64873;SDS011;51367;45.204;38.576;2023-02-21T17:52:29;8.20;;;3.17;;
64873;SDS011;51367;45.204;38.576;2023-02-21T17:54:55;3.53;;;1.67;;
64873;SDS011;51367;45.204;38.576;2023-02-21T17:57:22;7.15;;;3.78;;
64873;SDS011;51367;45.204;38.576;2023-02-21T17:59:47;4.03;;;2.22;;
64873;SDS011;51367;45.204;38.576;2023-02-21T18:02:14;10.55;;;3.67;;